metar:  

KBOI 182353Z 29006KT 8SM CLR 19/02 A3017 RMK AO2 SLP210 T01940017 10194 20144 56009